Time;durP1;ratioP1;P1;durP2;ratioP2;P2;SDS_P1;SDS_P2;PMS_P1;PMS_P2;Temp;Humidity;BMP_temperature;BMP_pressure;BME280_temperature;BME280_humidity;BME280_pressure;Samples;Min_cycle;Max_cycle;Signal;HPM_P1;HPM_P2
2023/08/11 00:00:25;;;;;;;5.47;4.35;;;18.20;91.80;;;;;;5094475;27;20527;-75
2023/08/11 00:02:51;;;;;;;4.75;4.15;;;18.20;92.10;;;;;;5100960;28;20511;-74
2023/08/11 00:05:19;;;;;;;5.60;4.40;;;18.20;93.30;;;;;;5092699;28;20426;-74
2023/08/11 00:07:46;;;;;;;5.20;4.70;;;18.20;93.30;;;;;;5095494;28;20723;-75
2023/08/11 00:10:13;;;;;;;5.45;4.30;;;18.20;93.30;;;;;;5107260;27;20837;-75
2023/08/11 00:12:41;;;;;;;5.72;4.13;;;18.10;93.80;;;;;;5097716;28;20427;-75
2023/08/11 00:15:08;;;;;;;5.00;4.20;;;18.10;93.30;;;;;;5098653;28;20435;-75
2023/08/11 00:17:35;;;;;;;4.70;4.20;;;18.00;93.30;;;;;;5115685;27;20404;-74
2023/08/11 00:20:04;;;;;;;4.97;4.55;;;18.00;93.80;;;;;;5110332;27;20449;-74
2023/08/11 00:22:30;;;;;;;4.95;4.30;;;18.00;93.50;;;;;;5099547;28;20428;-75
2023/08/11 00:24:57;;;;;;;4.80;3.90;;;18.00;93.70;;;;;;5117400;27;20429;-75
2023/08/11 00:27:24;;;;;;;5.10;4.40;;;17.90;93.90;;;;;;5109367;27;20408;-75
2023/08/11 00:29:54;;;;;;;4.43;4.03;;;17.90;93.80;;;;;;5105711;28;20904;-75
2023/08/11 00:32:21;;;;;;;4.80;3.77;;;17.90;94.00;;;;;;5097658;28;20611;-74
2023/08/11 00:34:48;;;;;;;4.63;4.13;;;17.80;93.60;;;;;;5099420;28;20481;-77
2023/08/11 00:37:14;;;;;;;4.30;3.55;;;17.80;93.90;;;;;;5110629;28;20418;-74
2023/08/11 00:39:41;;;;;;;5.63;3.80;;;17.80;93.80;;;;;;5106023;28;20410;-77
2023/08/11 00:42:08;;;;;;;4.40;4.00;;;17.70;93.80;;;;;;5100677;28;20453;-75
2023/08/11 00:44:35;;;;;;;4.90;4.40;;;17.70;94.00;;;;;;5116075;28;20449;-74
2023/08/11 00:47:05;;;;;;;5.80;4.50;;;17.70;94.20;;;;;;5111581;28;20445;-74
2023/08/11 00:49:32;;;;;;;4.93;4.43;;;17.60;94.50;;;;;;5109906;28;20418;-74
2023/08/11 00:51:58;;;;;;;4.90;4.40;;;17.60;94.30;;;;;;5108384;28;20975;-76
2023/08/11 00:54:26;;;;;;;5.10;4.20;;;17.50;94.50;;;;;;5105773;28;20744;-76
2023/08/11 00:56:54;;;;;;;4.70;3.97;;;17.50;94.80;;;;;;5110070;28;20415;-76
2023/08/11 00:59:22;;;;;;;4.50;3.70;;;17.50;95.10;;;;;;5097713;28;20427;-76
2023/08/11 01:01:48;;;;;;;4.50;3.90;;;17.40;95.40;;;;;;5098027;28;20430;-76
2023/08/11 01:04:16;;;;;;;5.28;4.10;;;17.40;95.70;;;;;;5102876;28;20412;-76
2023/08/11 01:06:46;;;;;;;5.20;4.05;;;17.30;95.90;;;;;;5110517;28;20808;-76
2023/08/11 01:09:20;;;;;;;5.85;4.07;;;17.30;96.10;;;;;;5110004;28;20404;-76
2023/08/11 01:11:56;;;;;;;4.93;4.17;;;17.30;96.20;;;;;;5114832;28;20575;-76
2023/08/11 01:14:31;;;;;;;6.23;4.43;;;17.30;97.20;;;;;;5103654;28;20431;-76
2023/08/11 01:17:01;;;;;;;4.85;4.22;;;17.20;97.00;;;;;;5112539;28;20425;-76
2023/08/11 01:19:33;;;;;;;4.40;4.00;;;17.20;97.10;;;;;;5092251;28;20543;-76
2023/08/11 01:22:02;;;;;;;5.22;4.50;;;17.10;97.30;;;;;;5092358;28;20507;-77
2023/08/11 01:24:31;;;;;;;4.70;4.00;;;17.10;97.40;;;;;;5097627;22;20445;-65
2023/08/11 01:26:59;;;;;;;4.70;4.18;;;17.10;97.80;;;;;;5073868;28;20937;-65
2023/08/11 01:29:26;;;;;;;5.18;4.57;;;17.10;97.70;;;;;;5072838;28;20432;-65
2023/08/11 01:31:53;;;;;;;4.72;4.20;;;17.10;98.20;;;;;;5068208;28;20805;-67
2023/08/11 01:34:20;;;;;;;4.95;3.97;;;17.00;97.80;;;;;;5070583;28;20419;-65
2023/08/11 01:36:46;;;;;;;4.88;3.85;;;17.00;97.90;;;;;;5070787;28;20407;-67
2023/08/11 01:39:13;;;;;;;4.45;4.05;;;16.90;98.20;;;;;;5070439;28;20428;-65
2023/08/11 01:41:41;;;;;;;4.88;4.38;;;16.90;98.30;;;;;;5069263;28;20430;-65
2023/08/11 01:44:09;;;;;;;5.53;4.80;;;16.90;98.40;;;;;;5069562;28;20529;-64
2023/08/11 01:46:36;;;;;;;6.28;4.35;;;16.80;98.40;;;;;;5069959;28;20427;-67
2023/08/11 01:49:03;;;;;;;5.75;3.90;;;16.80;98.40;;;;;;5069616;28;20431;-66
2023/08/11 01:51:30;;;;;;;5.05;3.90;;;16.80;98.50;;;;;;5070555;28;20412;-65
2023/08/11 01:53:57;;;;;;;4.10;3.70;;;16.80;98.50;;;;;;5068776;28;20485;-65
2023/08/11 01:56:25;;;;;;;4.23;3.93;;;16.70;98.20;;;;;;5071716;28;20797;-65
2023/08/11 01:58:53;;;;;;;5.33;4.03;;;16.70;98.40;;;;;;5069587;28;20504;-65
2023/08/11 02:01:20;;;;;;;6.30;4.10;;;16.70;98.40;;;;;;5068971;28;20427;-66
2023/08/11 02:03:46;;;;;;;5.78;4.20;;;16.70;98.30;;;;;;5066742;28;20435;-65
2023/08/11 02:06:14;;;;;;;4.72;3.95;;;16.70;98.40;;;;;;5070103;28;20438;-66
2023/08/11 02:08:41;;;;;;;3.95;3.55;;;16.60;98.30;;;;;;5069108;28;20458;-66
2023/08/11 02:11:08;;;;;;;4.50;4.10;;;16.60;98.40;;;;;;5069230;28;20434;-65
2023/08/11 02:13:35;;;;;;;5.50;4.20;;;16.60;98.50;;;;;;5068781;28;20467;-65
2023/08/11 02:16:03;;;;;;;6.93;4.18;;;16.50;98.70;;;;;;5068680;28;20774;-66
2023/08/11 02:18:30;;;;;;;3.70;3.40;;;16.50;98.90;;;;;;5070296;28;20412;-66
2023/08/11 02:20:57;;;;;;;4.28;3.97;;;16.50;99.00;;;;;;5068759;28;20412;-65
2023/08/11 02:23:24;;;;;;;5.60;3.70;;;16.40;99.10;;;;;;5072644;28;20499;-66
2023/08/11 02:25:50;;;;;;;5.13;3.80;;;16.40;99.20;;;;;;5090243;28;20468;-66
2023/08/11 02:28:17;;;;;;;4.60;4.00;;;16.40;99.10;;;;;;5089425;28;20437;-66
2023/08/11 02:30:44;;;;;;;4.28;3.88;;;16.30;99.30;;;;;;5088358;28;20429;-65
2023/08/11 02:33:12;;;;;;;5.00;4.20;;;16.30;99.30;;;;;;5090106;28;20413;-65
2023/08/11 02:35:39;;;;;;;4.40;4.00;;;16.30;99.50;;;;;;5088665;28;20413;-65
2023/08/11 02:38:06;;;;;;;4.60;4.20;;;16.30;99.50;;;;;;5082758;28;20426;-64
2023/08/11 02:40:32;;;;;;;5.30;4.00;;;16.30;99.60;;;;;;5083558;28;20819;-65
2023/08/11 02:42:58;;;;;;;5.00;4.50;;;16.20;99.40;;;;;;5088597;28;20428;-65
2023/08/11 02:45:26;;;;;;;4.53;3.83;;;16.20;99.40;;;;;;5088586;28;20426;-65
2023/08/11 02:47:53;;;;;;;6.63;4.10;;;16.20;99.30;;;;;;5089479;28;20435;-67
2023/08/11 02:50:21;;;;;;;5.07;4.13;;;16.20;99.40;;;;;;5087666;28;20433;-65
2023/08/11 02:52:48;;;;;;;5.28;3.90;;;16.20;99.40;;;;;;5089445;28;20414;-64
2023/08/11 02:55:15;;;;;;;4.43;4.03;;;16.20;99.50;;;;;;5089811;28;20783;-65
2023/08/11 02:57:42;;;;;;;3.90;3.60;;;16.20;99.90;;;;;;5090596;28;20919;-65
2023/08/11 03:00:12;;;;;;;4.40;3.60;;;16.20;99.90;;;;;;5088139;28;20424;-66
2023/08/11 03:02:40;;;;;;;4.20;3.90;;;16.20;99.60;;;;;;5085089;28;20904;-65
2023/08/11 03:05:09;;;;;;;4.60;3.80;;;16.20;99.40;;;;;;5081619;28;20413;-65
2023/08/11 03:07:38;;;;;;;4.70;3.90;;;16.20;99.40;;;;;;5088549;28;20430;-65
2023/08/11 03:10:06;;;;;;;4.10;3.50;;;16.20;99.40;;;;;;5085026;28;20430;-65
2023/08/11 03:12:33;;;;;;;4.23;3.80;;;16.20;99.10;;;;;;5080426;28;20429;-65
2023/08/11 03:15:00;;;;;;;5.10;3.40;;;16.20;99.30;;;;;;5084597;28;20459;-66
2023/08/11 03:17:27;;;;;;;3.83;3.50;;;16.10;99.10;;;;;;5090748;28;20448;-65
2023/08/11 03:19:54;;;;;;;4.10;3.70;;;16.10;99.20;;;;;;5082666;28;20514;-65
2023/08/11 03:22:21;;;;;;;4.60;3.60;;;16.10;99.40;;;;;;5089258;28;20967;-65
2023/08/11 03:24:49;;;;;;;4.33;3.60;;;16.10;99.30;;;;;;5087240;28;20422;-65
2023/08/11 03:27:16;;;;;;;3.72;3.42;;;16.10;99.30;;;;;;5086140;28;20553;-64
2023/08/11 03:29:43;;;;;;;4.15;3.50;;;16.10;99.40;;;;;;5089105;28;20571;-65
2023/08/11 03:32:10;;;;;;;4.18;3.20;;;16.10;99.50;;;;;;5086634;28;20799;-64
2023/08/11 03:34:37;;;;;;;4.40;4.00;;;16.10;99.60;;;;;;5087957;28;20425;-65
2023/08/11 03:37:05;;;;;;;4.18;3.33;;;16.00;99.40;;;;;;5087685;28;20468;-66
2023/08/11 03:39:32;;;;;;;5.80;3.90;;;16.00;99.20;;;;;;5086873;28;20707;-66
2023/08/11 03:42:00;;;;;;;4.43;3.45;;;16.00;99.10;;;;;;5087367;28;20436;-66
2023/08/11 03:44:26;;;;;;;4.03;3.63;;;16.00;99.00;;;;;;5087941;28;20421;-66
2023/08/11 03:46:53;;;;;;;3.63;3.33;;;16.00;99.10;;;;;;5087210;28;20517;-65
2023/08/11 03:49:20;;;;;;;4.78;3.75;;;16.00;99.10;;;;;;5088461;28;20496;-65
2023/08/11 03:51:47;;;;;;;5.25;3.65;;;16.00;99.10;;;;;;5088477;28;20495;-65
2023/08/11 03:54:13;;;;;;;4.95;3.60;;;16.00;99.10;;;;;;5086811;28;20932;-65
2023/08/11 03:56:40;;;;;;;4.45;3.70;;;16.00;99.20;;;;;;5084238;28;20532;-64
2023/08/11 03:59:08;;;;;;;4.15;3.55;;;16.00;99.30;;;;;;5081740;28;20410;-65
2023/08/11 04:01:35;;;;;;;4.70;3.42;;;16.00;99.10;;;;;;5081036;28;20958;-64
2023/08/11 04:04:02;;;;;;;3.97;3.55;;;16.00;99.80;;;;;;5084137;28;20633;-66
2023/08/11 04:06:32;;;;;;;4.15;3.50;;;16.00;99.50;;;;;;5084078;28;20995;-65
2023/08/11 04:08:59;;;;;;;4.72;3.88;;;16.00;99.80;;;;;;5087449;28;20436;-66
2023/08/11 04:11:26;;;;;;;4.00;3.55;;;15.90;99.90;;;;;;5087159;28;20467;-64
2023/08/11 04:13:53;;;;;;;4.00;3.70;;;16.00;99.90;;;;;;5088318;28;20406;-64
2023/08/11 04:16:21;;;;;;;5.57;3.88;;;15.90;99.80;;;;;;5086035;28;20576;-67
2023/08/11 04:18:48;;;;;;;5.05;3.70;;;15.90;99.80;;;;;;5082175;28;20561;-64
2023/08/11 04:21:15;;;;;;;4.30;3.67;;;15.90;99.70;;;;;;5082962;28;20453;-67
2023/08/11 04:23:41;;;;;;;4.10;3.70;;;15.90;99.80;;;;;;5087911;28;20418;-64
2023/08/11 04:26:08;;;;;;;5.40;3.70;;;15.80;99.90;;;;;;5080599;28;20426;-65
2023/08/11 04:28:36;;;;;;;5.88;4.10;;;15.80;99.80;;;;;;5086957;28;20453;-64
2023/08/11 04:31:03;;;;;;;4.18;3.80;;;15.80;99.90;;;;;;5086217;28;20440;-66
2023/08/11 04:33:32;;;;;;;4.50;3.50;;;15.80;99.90;;;;;;5087220;28;20420;-66
2023/08/11 04:35:58;;;;;;;4.40;3.50;;;15.80;99.70;;;;;;5087139;28;20434;-67
2023/08/11 04:38:25;;;;;;;6.07;3.90;;;15.80;99.70;;;;;;5086995;28;20429;-66
2023/08/11 04:40:52;;;;;;;5.77;3.80;;;15.70;99.50;;;;;;5086355;28;20544;-66
2023/08/11 04:43:19;;;;;;;4.13;3.70;;;15.70;99.30;;;;;;5087140;28;20464;-65
2023/08/11 04:45:46;;;;;;;5.80;3.50;;;15.70;99.30;;;;;;5082837;28;20848;-65
2023/08/11 04:48:13;;;;;;;4.90;3.90;;;15.80;99.30;;;;;;5087842;28;20453;-66
2023/08/11 04:50:41;;;;;;;5.20;3.50;;;15.80;99.30;;;;;;5087870;28;20414;-66
2023/08/11 04:53:09;;;;;;;5.03;3.50;;;15.80;99.10;;;;;;5083539;28;20431;-64
2023/08/11 04:55:39;;;;;;;4.65;3.60;;;15.80;98.80;;;;;;5086247;28;20459;-65
2023/08/11 04:58:06;;;;;;;3.95;3.55;;;15.80;98.70;;;;;;5088006;28;20863;-65
2023/08/11 05:00:34;;;;;;;4.78;3.53;;;15.80;98.60;;;;;;5089394;28;20430;-65
2023/08/11 05:03:00;;;;;;;6.57;3.80;;;15.80;98.50;;;;;;5087114;28;20426;-65
2023/08/11 05:05:27;;;;;;;4.57;3.60;;;15.80;98.40;;;;;;5090834;28;20439;-64
2023/08/11 05:07:55;;;;;;;6.15;3.88;;;15.90;98.30;;;;;;5089745;28;20465;-65
2023/08/11 05:10:22;;;;;;;3.88;3.35;;;15.90;98.20;;;;;;5089717;28;20954;-64
2023/08/11 05:12:49;;;;;;;4.47;3.40;;;15.90;97.60;;;;;;5089108;28;20483;-65
2023/08/11 05:15:16;;;;;;;5.25;3.90;;;15.90;97.70;;;;;;5083331;28;20855;-66
2023/08/11 05:17:43;;;;;;;4.47;3.60;;;16.00;97.70;;;;;;5089276;28;20414;-66
2023/08/11 05:20:11;;;;;;;4.93;3.60;;;16.00;97.60;;;;;;5092240;28;20418;-65
2023/08/11 05:22:38;;;;;;;4.35;3.40;;;16.00;97.60;;;;;;5084228;28;20429;-65
2023/08/11 05:25:08;;;;;;;4.45;3.20;;;16.00;97.60;;;;;;5091576;28;20472;-65
2023/08/11 05:27:34;;;;;;;4.18;3.30;;;16.00;97.50;;;;;;5091938;28;20426;-65
2023/08/11 05:30:01;;;;;;;4.15;3.75;;;16.00;97.30;;;;;;5091219;28;20518;-65
2023/08/11 05:32:28;;;;;;;6.60;3.15;;;16.00;97.30;;;;;;5089927;28;20421;-65
2023/08/11 05:34:55;;;;;;;3.72;2.70;;;16.10;97.30;;;;;;5089312;28;20426;-65
2023/08/11 05:37:24;;;;;;;4.47;3.80;;;16.10;96.90;;;;;;5084561;28;20433;-66
2023/08/11 05:39:51;;;;;;;5.13;3.75;;;16.10;97.00;;;;;;5087924;28;20428;-66
2023/08/11 05:42:19;;;;;;;4.40;3.30;;;16.10;97.20;;;;;;5090990;28;20427;-65
2023/08/11 05:44:46;;;;;;;4.90;3.47;;;16.10;97.10;;;;;;5090288;28;20436;-66
2023/08/11 05:47:13;;;;;;;4.88;3.38;;;16.20;97.20;;;;;;5091000;28;20429;-66
2023/08/11 05:49:40;;;;;;;6.75;3.70;;;16.20;97.20;;;;;;5089294;28;20434;-66
2023/08/11 05:52:06;;;;;;;6.30;3.47;;;16.20;97.10;;;;;;5089388;28;20410;-66
2023/08/11 05:54:33;;;;;;;4.15;3.28;;;16.30;96.80;;;;;;5090870;28;20772;-66
2023/08/11 05:57:00;;;;;;;4.50;3.17;;;16.30;96.70;;;;;;5089838;28;20433;-65
2023/08/11 05:59:28;;;;;;;4.43;3.22;;;16.30;96.20;;;;;;5089492;28;20414;-65
2023/08/11 06:01:55;;;;;;;4.03;3.15;;;16.40;96.20;;;;;;5086185;28;20437;-65
2023/08/11 06:04:22;;;;;;;6.43;3.55;;;16.40;96.10;;;;;;5087986;28;21095;-65
2023/08/11 06:06:48;;;;;;;5.70;3.42;;;16.40;96.10;;;;;;5089185;28;20426;-65
2023/08/11 06:09:15;;;;;;;5.00;3.28;;;16.40;96.10;;;;;;5087024;28;20495;-65
2023/08/11 06:11:42;;;;;;;5.22;3.25;;;16.50;96.00;;;;;;5089429;28;20406;-65
2023/08/11 06:14:09;;;;;;;5.00;3.00;;;16.50;95.80;;;;;;5087569;28;20414;-65
2023/08/11 06:16:37;;;;;;;5.28;3.38;;;16.50;95.70;;;;;;5086145;28;20911;-65
2023/08/11 06:19:04;;;;;;;5.38;3.20;;;16.60;95.50;;;;;;5087267;28;21273;-65
2023/08/11 06:21:30;;;;;;;5.70;3.20;;;16.60;95.40;;;;;;5086363;28;20430;-65
2023/08/11 06:23:57;;;;;;;5.50;3.30;;;16.70;95.30;;;;;;5088122;28;20526;-65
2023/08/11 06:26:24;;;;;;;4.63;3.40;;;16.70;95.10;;;;;;5088272;28;20437;-65
2023/08/11 06:28:51;;;;;;;5.70;3.40;;;16.80;94.90;;;;;;5089237;28;20589;-65
2023/08/11 06:31:19;;;;;;;6.00;3.40;;;16.80;94.70;;;;;;5083780;28;20441;-65
2023/08/11 06:33:48;;;;;;;4.30;3.10;;;16.90;94.60;;;;;;5087633;28;21489;-65
2023/08/11 06:36:15;;;;;;;4.15;3.10;;;17.00;94.40;;;;;;5090330;28;20417;-65
2023/08/11 06:38:42;;;;;;;5.43;3.40;;;17.00;94.40;;;;;;5091513;28;20418;-65
2023/08/11 06:41:09;;;;;;;6.10;3.30;;;17.10;94.30;;;;;;5089779;28;20505;-65
2023/08/11 06:43:36;;;;;;;5.55;3.30;;;17.20;94.00;;;;;;5090046;28;20433;-65
2023/08/11 06:46:03;;;;;;;5.10;3.08;;;17.20;93.80;;;;;;5089660;28;20532;-66
2023/08/11 06:48:29;;;;;;;4.50;2.83;;;17.30;93.60;;;;;;5087843;28;20927;-65
2023/08/11 06:50:58;;;;;;;5.25;2.75;;;17.40;93.60;;;;;;5087600;28;20736;-66
2023/08/11 06:53:24;;;;;;;5.20;3.72;;;17.50;93.20;;;;;;5085719;28;21032;-66
2023/08/11 06:55:52;;;;;;;3.42;2.60;;;17.60;92.80;;;;;;5089636;28;20410;-66
2023/08/11 06:58:19;;;;;;;5.00;2.77;;;17.70;92.70;;;;;;5090045;28;20487;-65
2023/08/11 07:00:45;;;;;;;3.60;3.10;;;17.70;92.50;;;;;;5085884;28;20435;-66
2023/08/11 07:03:12;;;;;;;5.55;2.80;;;17.80;92.30;;;;;;5088411;28;20432;-65
2023/08/11 07:05:39;;;;;;;6.65;3.00;;;17.90;92.30;;;;;;5086857;28;20441;-67
2023/08/11 07:08:07;;;;;;;5.70;3.10;;;18.00;91.70;;;;;;5082842;28;20429;-64
2023/08/11 07:10:34;;;;;;;4.43;3.00;;;18.10;91.30;;;;;;5086847;28;20429;-65
2023/08/11 07:13:01;;;;;;;5.85;2.88;;;18.30;90.90;;;;;;5086527;28;20899;-64
2023/08/11 07:15:27;;;;;;;4.07;2.60;;;18.30;91.00;;;;;;5088690;28;20426;-65
2023/08/11 07:17:54;;;;;;;4.00;2.70;;;18.40;91.10;;;;;;5088341;28;20422;-65
2023/08/11 07:20:21;;;;;;;5.53;3.00;;;18.50;90.60;;;;;;5088896;28;20945;-65
2023/08/11 07:22:48;;;;;;;3.30;2.90;;;18.70;90.60;;;;;;5081476;28;20430;-67
2023/08/11 07:25:16;;;;;;;6.10;2.90;;;18.80;90.20;;;;;;5106438;22;20462;-71
2023/08/11 07:27:43;;;;;;;4.47;2.72;;;18.90;90.20;;;;;;5095676;28;20424;-72
2023/08/11 07:30:10;;;;;;;4.60;2.88;;;19.10;89.20;;;;;;5102392;28;20541;-73
2023/08/11 07:32:37;;;;;;;3.60;3.10;;;19.20;88.10;;;;;;5102684;28;20444;-70
2023/08/11 07:35:05;;;;;;;4.50;2.70;;;19.30;87.50;;;;;;5101774;28;20435;-73
2023/08/11 07:37:32;;;;;;;5.10;2.60;;;19.40;87.10;;;;;;5085865;28;20513;-66
2023/08/11 07:39:58;;;;;;;3.80;2.30;;;19.60;86.70;;;;;;5084036;28;20430;-66
2023/08/11 07:42:26;;;;;;;5.15;2.70;;;19.80;86.20;;;;;;5087127;28;20447;-64
2023/08/11 07:44:53;;;;;;;3.33;2.63;;;19.90;84.90;;;;;;5088284;28;20495;-65
2023/08/11 07:47:20;;;;;;;4.72;2.85;;;20.00;83.70;;;;;;5088347;28;20424;-65
2023/08/11 07:49:47;;;;;;;3.90;2.80;;;20.10;82.70;;;;;;5089646;28;20415;-66
2023/08/11 07:52:13;;;;;;;3.72;2.70;;;20.20;82.20;;;;;;5080027;28;20564;-65
2023/08/11 07:54:40;;;;;;;3.28;2.28;;;20.40;81.50;;;;;;5080452;28;20426;-65
2023/08/11 07:57:07;;;;;;;3.33;2.20;;;20.40;80.80;;;;;;5080409;28;20410;-65
2023/08/11 07:59:35;;;;;;;3.97;2.57;;;20.50;80.80;;;;;;5081627;28;20852;-64
2023/08/11 08:02:03;;;;;;;4.97;3.10;;;20.60;80.70;;;;;;5087430;28;21211;-65
2023/08/11 08:04:30;;;;;;;3.60;2.60;;;20.80;79.40;;;;;;5079876;28;20452;-65
2023/08/11 08:06:57;;;;;;;3.55;2.70;;;21.00;79.00;;;;;;5086000;28;21008;-65
2023/08/11 08:09:24;;;;;;;5.03;3.10;;;21.10;79.00;;;;;;5090870;28;20474;-65
2023/08/11 08:11:50;;;;;;;4.20;2.60;;;21.30;77.90;;;;;;5083929;28;20414;-65
2023/08/11 08:14:17;;;;;;;4.27;2.60;;;21.40;77.30;;;;;;5090337;28;20448;-65
2023/08/11 08:16:45;;;;;;;3.85;2.80;;;21.60;76.80;;;;;;5090025;28;20919;-65
2023/08/11 08:19:14;;;;;;;4.35;2.70;;;21.70;75.80;;;;;;5085433;28;20493;-65
2023/08/11 08:21:41;;;;;;;4.90;2.60;;;21.80;76.30;;;;;;5089915;28;20425;-66
2023/08/11 08:24:09;;;;;;;2.90;2.50;;;22.00;75.10;;;;;;5085143;28;20435;-65
2023/08/11 08:26:36;;;;;;;6.63;2.90;;;22.10;74.40;;;;;;5088417;28;20473;-66
2023/08/11 08:29:03;;;;;;;4.22;2.80;;;22.20;74.00;;;;;;5095937;28;20759;-64
2023/08/11 08:31:30;;;;;;;3.25;2.42;;;22.40;73.60;;;;;;5091151;28;20435;-65
2023/08/11 08:33:58;;;;;;;3.00;2.28;;;22.60;72.80;;;;;;5093936;28;20439;-65
2023/08/11 08:36:25;;;;;;;3.00;2.40;;;22.70;73.00;;;;;;5087834;28;20830;-65
2023/08/11 08:38:51;;;;;;;3.60;2.50;;;22.90;72.60;;;;;;5084246;28;20426;-65
2023/08/11 08:41:23;;;;;;;3.25;2.40;;;23.10;71.40;;;;;;5088767;28;20424;-65
2023/08/11 08:43:51;;;;;;;4.32;2.60;;;23.30;70.30;;;;;;5092754;28;20905;-65
2023/08/11 08:46:21;;;;;;;4.80;2.40;;;23.50;69.50;;;;;;5093498;28;20439;-65
2023/08/11 08:48:54;;;;;;;3.37;2.20;;;23.60;68.60;;;;;;5092969;28;20752;-66
2023/08/11 08:51:23;;;;;;;3.50;2.47;;;23.70;67.80;;;;;;5081217;28;20465;-65
2023/08/11 08:53:50;;;;;;;5.70;2.40;;;23.90;68.00;;;;;;5082036;28;20428;-65
2023/08/11 08:56:17;;;;;;;3.03;2.40;;;24.10;67.20;;;;;;5082807;28;20439;-65
2023/08/11 08:58:43;;;;;;;3.67;2.00;;;24.20;65.70;;;;;;5097408;28;20412;-65
2023/08/11 09:01:11;;;;;;;3.35;2.20;;;24.30;65.40;;;;;;5088287;28;20434;-65
2023/08/11 09:03:39;;;;;;;3.55;2.22;;;24.40;65.50;;;;;;5081668;28;20430;-66
2023/08/11 09:06:07;;;;;;;3.25;2.40;;;24.50;64.20;;;;;;5088805;28;20496;-66
2023/08/11 09:08:39;;;;;;;2.90;2.25;;;24.60;64.40;;;;;;5089149;28;20785;-65
2023/08/11 09:11:07;;;;;;;3.05;2.30;;;24.70;64.20;;;;;;5084035;28;20930;-65
2023/08/11 09:13:34;;;;;;;3.28;2.15;;;24.80;63.50;;;;;;5088198;28;20421;-66
2023/08/11 09:16:01;;;;;;;4.57;2.58;;;25.00;63.20;;;;;;5089497;28;20418;-65
2023/08/11 09:18:28;;;;;;;3.67;2.13;;;25.10;61.50;;;;;;5085180;28;20408;-65
2023/08/11 09:20:55;;;;;;;3.38;2.00;;;25.30;61.40;;;;;;5083101;28;20452;-65
2023/08/11 09:23:22;;;;;;;3.42;2.20;;;25.40;59.90;;;;;;5089311;28;20440;-66
2023/08/11 09:25:50;;;;;;;2.40;2.20;;;25.70;59.30;;;;;;5085100;28;20858;-66
2023/08/11 09:28:17;;;;;;;3.17;2.10;;;25.80;58.00;;;;;;5082950;28;20503;-65
2023/08/11 09:30:46;;;;;;;2.90;2.20;;;25.90;58.20;;;;;;5095374;28;20516;-66
2023/08/11 09:33:13;;;;;;;3.63;2.23;;;26.00;57.70;;;;;;5099070;28;20701;-65
2023/08/11 09:35:41;;;;;;;2.33;1.80;;;26.20;56.30;;;;;;5090597;28;20517;-66
2023/08/11 09:38:08;;;;;;;5.60;2.30;;;26.30;53.60;;;;;;5082292;28;20428;-66
2023/08/11 09:40:35;;;;;;;3.10;2.10;;;26.40;55.60;;;;;;5088269;28;20430;-66
2023/08/11 09:43:04;;;;;;;3.10;2.30;;;26.50;53.90;;;;;;5091234;28;20428;-66
2023/08/11 09:45:31;;;;;;;2.73;2.20;;;26.60;53.10;;;;;;5088119;28;20873;-65
2023/08/11 09:47:58;;;;;;;3.40;2.30;;;26.70;53.70;;;;;;5095472;28;20448;-64
2023/08/11 09:50:27;;;;;;;2.97;2.40;;;26.80;50.30;;;;;;5096692;28;20852;-66
2023/08/11 09:52:56;;;;;;;3.45;2.10;;;26.90;50.10;;;;;;5085126;28;20525;-65
2023/08/11 09:55:23;;;;;;;2.67;2.22;;;27.00;49.40;;;;;;5093359;28;20432;-66
2023/08/11 09:57:51;;;;;;;2.87;1.90;;;27.10;49.80;;;;;;5091210;28;20790;-66
2023/08/11 10:00:20;;;;;;;2.42;2.15;;;27.20;49.50;;;;;;5090043;28;20772;-63
2023/08/11 10:02:51;;;;;;;3.60;2.28;;;27.20;48.10;;;;;;5085031;28;20943;-64
2023/08/11 10:05:18;;;;;;;3.55;2.10;;;27.30;48.10;;;;;;5084533;28;20418;-63
2023/08/11 10:07:50;;;;;;;2.70;2.10;;;27.40;51.80;;;;;;5083772;28;20744;-66
2023/08/11 10:10:20;;;;;;;3.00;2.22;;;27.30;50.50;;;;;;5087883;28;20455;-66
2023/08/11 10:12:52;;;;;;;2.70;2.00;;;27.40;47.60;;;;;;5095211;28;20458;-66
2023/08/11 10:15:23;;;;;;;3.13;1.90;;;27.50;50.00;;;;;;5093755;28;20434;-66
2023/08/11 10:17:50;;;;;;;2.95;2.10;;;27.70;47.30;;;;;;5085604;28;20752;-66
2023/08/11 10:20:17;;;;;;;2.17;2.00;;;27.80;47.40;;;;;;5088002;28;20413;-66
2023/08/11 10:22:44;;;;;;;2.75;2.15;;;27.90;48.40;;;;;;5088267;28;20410;-66
2023/08/11 10:25:12;;;;;;;3.38;2.10;;;28.00;47.30;;;;;;5083600;28;20430;-68
2023/08/11 10:27:40;;;;;;;3.42;2.20;;;28.10;46.50;;;;;;5091182;28;20435;-66
2023/08/11 10:30:09;;;;;;;3.70;2.10;;;28.30;45.60;;;;;;5087166;28;20439;-66
2023/08/11 10:32:39;;;;;;;2.40;2.10;;;28.40;45.00;;;;;;5085302;28;20520;-67
2023/08/11 10:35:06;;;;;;;2.15;1.95;;;28.60;44.80;;;;;;5089434;28;20424;-67
2023/08/11 10:37:33;;;;;;;2.70;1.90;;;28.80;46.00;;;;;;5098017;28;20570;-66
2023/08/11 10:40:05;;;;;;;3.30;2.30;;;28.80;44.40;;;;;;5091479;28;20439;-71
2023/08/11 10:42:32;;;;;;;3.30;2.05;;;29.00;44.50;;;;;;5091925;28;20460;-73
2023/08/11 10:45:11;;;;;;;2.50;2.00;;;29.20;43.20;;;;;;5088623;28;20451;-73
2023/08/11 10:47:44;;;;;;;3.20;2.20;;;29.40;43.30;;;;;;5090548;28;20901;-72
2023/08/11 10:50:14;;;;;;;3.00;1.90;;;29.50;42.40;;;;;;5092285;28;20441;-73
2023/08/11 10:52:41;;;;;;;4.23;2.20;;;29.60;42.60;;;;;;5097081;28;20848;-73
2023/08/11 10:55:08;;;;;;;2.75;1.98;;;29.80;41.70;;;;;;5094832;28;20434;-72
2023/08/11 10:57:35;;;;;;;2.20;1.83;;;30.10;41.50;;;;;;5098055;28;20466;-73
2023/08/11 11:00:03;;;;;;;2.40;1.80;;;30.30;41.00;;;;;;5093206;28;20480;-72
2023/08/11 11:02:32;;;;;;;3.10;2.10;;;30.40;41.00;;;;;;5091493;28;20942;-73
2023/08/11 11:05:00;;;;;;;3.70;2.00;;;30.50;40.80;;;;;;5098963;28;20893;-73
2023/08/11 11:07:26;;;;;;;2.60;2.00;;;30.60;39.50;;;;;;5095964;28;20426;-73
2023/08/11 11:09:53;;;;;;;2.90;1.80;;;30.60;40.10;;;;;;5087846;28;20438;-73
2023/08/11 11:12:21;;;;;;;2.67;1.90;;;30.70;40.10;;;;;;5094620;28;20432;-73
2023/08/11 11:14:49;;;;;;;2.20;1.98;;;30.90;39.10;;;;;;5103801;28;20512;-73
2023/08/11 11:17:17;;;;;;;2.53;2.30;;;31.00;39.40;;;;;;5093860;28;20915;-73
2023/08/11 11:19:44;;;;;;;2.90;2.30;;;31.10;39.20;;;;;;5084746;28;20441;-73
2023/08/11 11:22:14;;;;;;;2.20;2.00;;;31.20;38.50;;;;;;5088034;28;20418;-73
2023/08/11 11:24:40;;;;;;;2.65;2.00;;;31.10;38.40;;;;;;5088199;28;20460;-73
2023/08/11 11:27:07;;;;;;;2.00;1.80;;;31.20;39.10;;;;;;5090189;28;20802;-73
2023/08/11 11:29:37;;;;;;;2.10;1.80;;;31.40;38.20;;;;;;5089812;28;20438;-73
2023/08/11 11:32:06;;;;;;;3.80;2.08;;;31.50;38.70;;;;;;5092780;28;20434;-73
2023/08/11 11:34:36;;;;;;;2.58;2.05;;;31.70;38.20;;;;;;5093254;28;20438;-73
2023/08/11 11:37:03;;;;;;;2.60;1.75;;;31.40;37.30;;;;;;5101543;28;20420;-73
2023/08/11 11:39:32;;;;;;;2.30;2.00;;;31.40;38.80;;;;;;5092004;28;20432;-73
2023/08/11 11:42:06;;;;;;;2.42;1.98;;;31.60;38.20;;;;;;5083396;28;20562;-73
2023/08/11 11:44:33;;;;;;;3.28;1.90;;;31.90;37.80;;;;;;5089562;28;20509;-74
2023/08/11 11:47:00;;;;;;;3.80;2.00;;;32.00;37.60;;;;;;5085069;28;20445;-73
2023/08/11 11:49:26;;;;;;;4.18;2.10;;;32.20;37.80;;;;;;5083890;28;20434;-73
2023/08/11 11:51:53;;;;;;;1.90;1.70;;;32.40;37.60;;;;;;5104484;28;20399;-74
2023/08/11 11:54:20;;;;;;;1.92;1.70;;;32.70;35.70;;;;;;5099077;28;20432;-74
2023/08/11 11:56:48;;;;;;;2.70;1.60;;;32.50;36.60;;;;;;5085639;28;20417;-74
2023/08/11 11:59:15;;;;;;;1.90;1.70;;;32.40;36.50;;;;;;5090347;28;20484;-74
2023/08/11 12:01:43;;;;;;;1.90;1.80;;;32.50;36.40;;;;;;5091799;28;20503;-73
2023/08/11 12:04:10;;;;;;;2.90;1.80;;;32.50;35.90;;;;;;5093283;28;20435;-75
2023/08/11 12:06:37;;;;;;;2.60;1.80;;;32.30;35.90;;;;;;5091740;28;20428;-74
2023/08/11 12:09:09;;;;;;;3.08;1.70;;;32.30;36.00;;;;;;5090736;28;20872;-74
2023/08/11 12:11:36;;;;;;;2.00;1.80;;;32.20;35.90;;;;;;5091939;28;20428;-73
2023/08/11 12:14:05;;;;;;;2.00;1.80;;;32.20;36.00;;;;;;5094957;28;20436;-75
2023/08/11 12:16:32;;;;;;;3.30;1.70;;;32.20;35.80;;;;;;5100309;28;20472;-75
2023/08/11 12:19:00;;;;;;;2.20;1.73;;;32.30;35.60;;;;;;5088523;28;20774;-75
2023/08/11 12:21:27;;;;;;;1.88;1.70;;;32.50;35.30;;;;;;5090924;28;20518;-71
2023/08/11 12:23:54;;;;;;;1.73;1.58;;;32.70;35.00;;;;;;5081750;28;20804;-70
2023/08/11 12:26:21;;;;;;;1.60;1.50;;;32.80;35.10;;;;;;5086026;28;20435;-70
2023/08/11 12:28:48;;;;;;;2.33;1.85;;;33.00;35.90;;;;;;5098084;28;20424;-73
2023/08/11 12:31:16;;;;;;;3.72;3.53;;;33.20;35.10;;;;;;5100521;28;20436;-69
2023/08/11 12:33:42;;;;;;;10.20;9.40;;;33.50;35.30;;;;;;5097017;28;20549;-72
2023/08/11 12:36:09;;;;;;;6.93;6.43;;;33.60;35.40;;;;;;5091194;28;20891;-72
2023/08/11 12:38:36;;;;;;;7.50;6.90;;;33.60;34.90;;;;;;5085652;28;20433;-75
2023/08/11 12:41:02;;;;;;;11.60;10.70;;;33.40;34.30;;;;;;5080068;28;20518;-72
2023/08/11 12:43:29;;;;;;;19.50;18.20;;;33.50;34.70;;;;;;5083837;28;20422;-71
2023/08/11 12:45:56;;;;;;;5.38;5.07;;;33.60;33.80;;;;;;5097426;28;20440;-71